Aptos, CA

11:16 PM PDT on August 20, 2014 (GMT -0700)
Seacliff Beach | Change Station
CLOSE
Current Station
Personal Weather Station
Location: Aptos, CA
Elevation: 100 ft
Nearby Weather Stations

Elev 100 ft 36.97 °N, 121.91 °W | Updated 36 seconds ago

Overcast
Overcast
57.7 °F
Feels Like 57.7 °F
N
0.0
Wind Variable Wind from North
Gusts 0.0 mph

Today
High -- | Low -- °F
--% Chance of Precip.
Yesterday
High -- | Low -- °F
Precip. -- in
6:28 AM 7:52 PM
Waning Crescent, 16% visible
Pressure 29.95 in
Visibility 10.0 miles
Clouds Overcast 1500 ft
Dew Point 55 °F
Humidity 90%
Rainfall 0.00 in
Snow Depth Not available.
UV 0 out of 12
Pollen 4.90 out of 12
Air Quality Not available.
Flu Activity Not available.
METAR KWVI 210553Z AUTO 23004KT 10SM OVC015 17/13 A2995 RMK AO2 SLP142 T01720133 10217 20161 51010

More Conditions Fewer Conditions

Pressure 29.95 in
Visibility 10.0 miles
Clouds Overcast 1500 ft
Dew Point 55 °F
Humidity 90%
Rainfall 0.00 in
Snow Depth Not available.
UV 0 out of 12
Pollen 4.90 out of 12
Air Quality Not available.
Flu Activity Not available.
METAR KWVI 210553Z AUTO 23004KT 10SM OVC015 17/13 A2995 RMK AO2 SLP142 T01720133 10217 20161 51010

More Conditions Fewer Conditions

10-Day Weather Forecast

Almanac

Astronomy

Aug. 20, 2014 Rise Set
Actual Time 6:28 AM PDT 7:52 PM PDT
Civil Twilight 6:01 AM PDT 8:19 PM PDT
Nautical Twilight 5:28 AM PDT 8:52 PM PDT
Astronomical Twilight 4:54 AM PDT 9:26 PM PDT
Moon 2:15 AM PDT (8/20) 4:39 PM PDT (8/20)
Length of Visible Light 14h 18m
Length of Day
13h 23m
Tomorrow will be 2m 9s shorter.
Waning Crescent, 16% of the Moon is Illuminated
Aug 21
Waning Crescent
Aug 25
New
Sep 2
First Quarter
Sep 8
Full
Sep 15
Last Quarter

Community

WunderPhotos

Upload Photos

1,745,858 photos uploaded!

Nearby

Snow Depth

Station Depth Elevation
Leavitt Lake 1 in 9400 ft
Forestdale Creek 0 in 8029 ft
Leavitt Meadows 1 in 7200 ft
Summit Meadow 0 in 9122 ft
Echo Peak 1 in 7800 ft

Earthquake Activity

City Distance Mag. Time & Date
King City, California 74 miles 2.7 10:26 PM PDT
2014-08-15
Kettleman City, California 122 miles 2.9 11:32 PM PDT
2014-08-14
King City, California 73 miles 2.9 8:01 PM PDT
2014-08-14
Mariposa, California 109 miles 2.5 4:54 AM PDT
2014-08-14
Minimum magnitude displayed is 2.5.

Coastal Water Temperatures

Place Temperature
Monterey, CA 62.1 °F
Redwood City, CA 73.9 °F

Nearby Weather Stations